Time;durP1;ratioP1;P1;durP2;ratioP2;P2;SDS_P1;SDS_P2;PMS_P1;PMS_P2;Temp;Humidity;BMP_temperature;BMP_pressure;BME280_temperature;BME280_humidity;BME280_pressure;Samples;Min_cycle;Max_cycle;Signal;HPM_P1;HPM_P2
2021/12/16 00:09:41;;;;;;;38.23;20.90;;;5.10;81.30;;;;;;5068533;28;46095;-68
2021/12/16 00:34:21;;;;;;;46.00;20.92;;;5.00;81.70;;;;;;5034835;28;46382;-68
2021/12/16 00:36:48;;;;;;;43.90;20.00;;;5.00;81.60;;;;;;5069455;28;46440;-69
2021/12/16 00:39:34;;;;;;;41.33;21.47;;;5.00;81.30;;;;;;5056184;28;46416;-69
2021/12/16 00:42:07;;;;;;;42.60;20.50;;;5.10;81.10;;;;;;5055462;28;48762;-68
2021/12/16 00:49:40;;;;;;;41.00;20.67;;;5.30;80.40;;;;;;5068397;28;46465;-68
2021/12/16 00:55:04;;;;;;;39.77;20.57;;;5.40;79.90;;;;;;5070794;28;46372;-68
2021/12/16 00:57:33;;;;;;;38.33;20.10;;;5.40;79.80;;;;;;5052020;28;46372;-67
2021/12/16 01:00:03;;;;;;;43.27;21.40;;;5.50;79.70;;;;;;5053589;28;46437;-68
2021/12/16 01:02:50;;;;;;;39.50;20.57;;;5.50;79.40;;;;;;5057502;28;48721;-67
2021/12/16 01:35:30;;;;;;;37.33;20.37;;;5.00;81.40;;;;;;5071758;28;46763;-69
2021/12/16 01:38:44;;;;;;;39.00;20.03;;;4.90;81.70;;;;;;5055317;28;46342;-68
2021/12/16 01:41:42;;;;;;;36.80;18.23;;;4.90;81.80;;;;;;5073378;28;46392;-69
2021/12/16 01:57:23;;;;;;;37.90;20.00;;;4.90;81.40;;;;;;5066980;28;45984;-66
2021/12/16 02:00:00;;;;;;;41.43;20.07;;;4.90;81.30;;;;;;5060466;28;46467;-68
2021/12/16 02:05:50;;;;;;;39.17;20.97;;;4.90;81.40;;;;;;5072795;28;46634;-67
2021/12/16 02:10:38;;;;;;;38.28;19.95;;;5.00;81.20;;;;;;5070337;28;46514;-66
2021/12/16 02:35:12;;;;;;;32.70;19.27;;;5.20;79.80;;;;;;5072001;28;46456;-69
2021/12/16 02:37:45;;;;;;;33.47;19.30;;;5.10;80.30;;;;;;5055156;28;45819;-68
2021/12/16 02:40:12;;;;;;;31.63;18.53;;;5.10;80.40;;;;;;5055334;28;47907;-69
2021/12/16 02:42:51;;;;;;;35.55;19.80;;;5.10;80.50;;;;;;5072245;28;46390;-66
2021/12/16 02:50:45;;;;;;;32.20;18.20;;;5.40;79.80;;;;;;5072660;27;46390;-67
2021/12/16 02:53:11;;;;;;;38.73;20.50;;;5.40;79.40;;;;;;5054696;28;46722;-68
2021/12/16 02:55:39;;;;;;;36.43;19.53;;;5.40;79.40;;;;;;5055204;28;46530;-66
2021/12/16 02:58:05;;;;;;;34.00;18.07;;;5.40;79.70;;;;;;5056738;28;46520;-66
2021/12/16 03:00:39;;;;;;;36.60;19.60;;;5.40;79.90;;;;;;5071735;27;46303;-66
2021/12/16 03:03:05;;;;;;;37.17;18.60;;;5.30;80.00;;;;;;5056808;27;46401;-67
2021/12/16 03:05:31;;;;;;;34.57;18.30;;;5.30;80.20;;;;;;5064499;27;46480;-68
2021/12/16 03:07:58;;;;;;;38.90;19.43;;;5.30;80.20;;;;;;5062673;27;46391;-67
2021/12/16 03:13:08;;;;;;;35.57;18.17;;;5.40;79.70;;;;;;5075466;27;45785;-68
2021/12/16 03:21:13;;;;;;;28.40;15.77;;;5.30;79.90;;;;;;5069634;27;47100;-68
2021/12/16 03:31:26;;;;;;;34.27;17.37;;;5.30;79.90;;;;;;5080777;27;46830;-68
2021/12/16 03:36:29;;;;;;;34.13;17.10;;;5.20;79.70;;;;;;5073446;28;46418;-68
2021/12/16 03:39:08;;;;;;;30.93;17.53;;;5.10;80.20;;;;;;5061438;28;46171;-67
2021/12/16 03:41:34;;;;;;;29.63;17.07;;;4.90;80.70;;;;;;5053749;28;47846;-67
2021/12/16 03:44:05;;;;;;;28.88;15.63;;;4.80;81.00;;;;;;5077780;28;46374;-66
2021/12/16 03:46:35;;;;;;;28.60;16.07;;;4.70;81.20;;;;;;5051607;28;46305;-67
2021/12/16 03:49:14;;;;;;;27.90;15.50;;;4.70;81.30;;;;;;5070422;27;46478;-66
2021/12/16 03:51:51;;;;;;;31.33;17.20;;;4.80;81.00;;;;;;5055487;28;48067;-68
2021/12/16 03:54:25;;;;;;;27.30;15.73;;;4.90;80.50;;;;;;5059394;28;46361;-68
2021/12/16 03:56:53;;;;;;;29.13;15.13;;;5.00;80.40;;;;;;5060157;28;46311;-68
2021/12/16 03:59:25;;;;;;;23.13;14.20;;;4.90;80.40;;;;;;5073056;27;46441;-68
2021/12/16 04:01:53;;;;;;;25.73;14.57;;;4.90;80.50;;;;;;5059243;27;48043;-67
2021/12/16 04:04:19;;;;;;;27.67;15.85;;;4.80;80.60;;;;;;5052631;28;46453;-67
2021/12/16 04:06:48;;;;;;;26.40;15.13;;;4.80;80.60;;;;;;5069986;27;46435;-68
2021/12/16 04:09:16;;;;;;;25.27;14.77;;;4.90;80.30;;;;;;5053137;27;46443;-69
2021/12/16 04:11:51;;;;;;;21.73;12.73;;;4.80;80.50;;;;;;5060106;28;47815;-67
2021/12/16 04:14:17;;;;;;;23.92;13.80;;;4.70;80.80;;;;;;5057874;27;45958;-68
2021/12/16 04:16:52;;;;;;;20.00;12.50;;;4.60;81.30;;;;;;5056168;28;46497;-68
2021/12/16 04:19:23;;;;;;;22.77;12.00;;;4.50;81.40;;;;;;5062938;27;46484;-69
2021/12/16 04:22:04;;;;;;;18.47;11.70;;;4.40;81.70;;;;;;5060743;28;48032;-69
2021/12/16 04:24:32;;;;;;;22.08;12.45;;;4.40;82.90;;;;;;5057366;28;46421;-68
2021/12/16 04:26:58;;;;;;;18.58;10.80;;;4.50;81.60;;;;;;5058273;27;46428;-68
2021/12/16 04:29:25;;;;;;;19.73;11.80;;;4.50;81.50;;;;;;5065534;28;46326;-69
2021/12/16 04:31:53;;;;;;;20.27;11.73;;;4.50;81.20;;;;;;5053855;27;47700;-69
2021/12/16 04:34:20;;;;;;;22.60;13.10;;;4.60;81.00;;;;;;5071284;27;45947;-69
2021/12/16 04:36:46;;;;;;;19.88;12.00;;;4.60;80.80;;;;;;5056802;28;46470;-68
2021/12/16 04:39:21;;;;;;;22.40;11.93;;;4.70;80.60;;;;;;5057752;27;46625;-68
2021/12/16 04:41:47;;;;;;;19.40;10.80;;;4.70;80.40;;;;;;5051517;28;48940;-69
2021/12/16 04:44:15;;;;;;;20.27;11.40;;;4.60;80.70;;;;;;5053479;27;46398;-68
2021/12/16 04:46:42;;;;;;;18.63;11.18;;;4.60;80.80;;;;;;5062452;28;46589;-69
2021/12/16 04:49:10;;;;;;;16.87;10.90;;;4.70;80.50;;;;;;5070510;28;46736;-69
2021/12/16 04:51:39;;;;;;;15.77;10.27;;;4.70;80.50;;;;;;5070734;28;46462;-69
2021/12/16 04:54:08;;;;;;;21.33;9.88;;;4.50;80.80;;;;;;5060668;27;46399;-69
2021/12/16 04:56:40;;;;;;;17.07;9.90;;;4.50;81.10;;;;;;5057224;28;46457;-68
2021/12/16 04:59:11;;;;;;;21.90;12.13;;;4.40;81.10;;;;;;5061903;27;46584;-69
2021/12/16 05:01:43;;;;;;;15.87;9.90;;;4.50;81.10;;;;;;5057779;28;49040;-69
2021/12/16 05:04:10;;;;;;;12.57;8.32;;;4.40;81.20;;;;;;5059362;28;46568;-67
2021/12/16 05:06:36;;;;;;;13.80;8.70;;;4.30;81.40;;;;;;5053403;28;45893;-67
2021/12/16 05:09:04;;;;;;;16.30;9.70;;;4.20;81.70;;;;;;5057525;28;45965;-69
2021/12/16 05:11:33;;;;;;;13.87;8.60;;;4.10;81.90;;;;;;5057463;28;48212;-67
2021/12/16 05:13:59;;;;;;;15.15;8.65;;;4.10;82.10;;;;;;5051735;28;46463;-69
2021/12/16 05:16:25;;;;;;;17.05;10.57;;;4.00;82.30;;;;;;5056156;27;46363;-69
2021/12/16 05:18:54;;;;;;;19.98;13.05;;;3.90;82.30;;;;;;5054705;27;46382;-69
2021/12/16 05:24:16;;;;;;;15.25;10.15;;;3.90;83.20;;;;;;5072394;28;46417;-69
2021/12/16 05:26:44;;;;;;;19.83;10.97;;;3.90;83.30;;;;;;5055134;27;45862;-68
2021/12/16 05:29:13;;;;;;;16.00;10.40;;;4.00;83.00;;;;;;5058858;27;46616;-69
2021/12/16 05:31:40;;;;;;;15.50;9.17;;;4.00;82.70;;;;;;5078138;27;47278;-69
2021/12/16 05:34:06;;;;;;;15.57;10.27;;;4.10;82.40;;;;;;5058289;28;46360;-69
2021/12/16 05:36:32;;;;;;;19.27;11.18;;;4.20;81.70;;;;;;5055717;28;46434;-69
2021/12/16 05:38:59;;;;;;;17.23;10.73;;;4.30;81.40;;;;;;5056369;28;46467;-68
2021/12/16 05:41:25;;;;;;;18.90;11.30;;;4.30;81.10;;;;;;5068099;28;47183;-68
2021/12/16 05:43:52;;;;;;;19.88;11.15;;;4.30;81.10;;;;;;5054815;28;46394;-69
2021/12/16 05:46:21;;;;;;;19.77;11.43;;;4.30;82.30;;;;;;5053661;28;46410;-70
2021/12/16 05:48:49;;;;;;;18.80;10.60;;;4.30;81.20;;;;;;5055554;28;46547;-68
2021/12/16 05:51:27;;;;;;;19.33;13.15;;;4.40;80.80;;;;;;5051431;28;47984;-68
2021/12/16 05:53:54;;;;;;;17.25;11.68;;;4.60;80.20;;;;;;5058259;28;46304;-68
2021/12/16 05:56:20;;;;;;;20.40;12.13;;;4.60;80.20;;;;;;5051597;28;46389;-66
2021/12/16 05:58:47;;;;;;;18.40;11.03;;;4.70;80.00;;;;;;5056860;28;46504;-67
2021/12/16 06:01:20;;;;;;;18.30;10.90;;;4.70;80.00;;;;;;5064326;28;48063;-69
2021/12/16 06:03:49;;;;;;;17.53;10.10;;;4.70;80.10;;;;;;5057259;28;46245;-69
2021/12/16 06:06:16;;;;;;;16.20;10.30;;;4.80;79.80;;;;;;5057430;28;46413;-68
2021/12/16 06:08:44;;;;;;;16.07;10.43;;;4.80;79.50;;;;;;5063983;28;46841;-69
2021/12/16 06:11:29;;;;;;;16.60;10.10;;;4.90;79.40;;;;;;5056246;28;48759;-70
2021/12/16 06:27:42;;;;;;;17.43;10.60;;;5.10;79.20;;;;;;5068025;28;46313;-68
2021/12/16 06:30:11;;;;;;;15.30;9.93;;;5.10;79.20;;;;;;5053408;28;46421;-69
2021/12/16 06:32:40;;;;;;;20.90;12.20;;;5.10;79.20;;;;;;5048634;28;47741;-69
2021/12/16 06:35:08;;;;;;;18.50;11.17;;;5.10;78.90;;;;;;5076213;28;45748;-67
2021/12/16 06:37:36;;;;;;;22.40;12.43;;;5.10;78.90;;;;;;5055684;28;46441;-68
2021/12/16 06:40:06;;;;;;;16.13;10.90;;;5.10;79.00;;;;;;5057921;28;46129;-67
2021/12/16 06:42:35;;;;;;;17.67;11.10;;;5.10;79.20;;;;;;5070414;28;48004;-68
2021/12/16 06:45:07;;;;;;;19.40;11.53;;;5.10;79.30;;;;;;5056076;28;46445;-69
2021/12/16 06:47:49;;;;;;;17.57;12.00;;;5.10;79.30;;;;;;5055860;28;46351;-69
2021/12/16 06:50:29;;;;;;;15.13;10.10;;;5.10;79.20;;;;;;5058681;28;46267;-69
2021/12/16 06:52:58;;;;;;;16.87;10.90;;;5.20;79.30;;;;;;5061248;28;48296;-69
2021/12/16 06:55:54;;;;;;;18.93;10.87;;;5.10;79.30;;;;;;5054203;28;46424;-68
2021/12/16 06:58:31;;;;;;;18.73;10.63;;;5.10;79.40;;;;;;5073969;28;46271;-68
2021/12/16 07:01:20;;;;;;;18.30;11.70;;;5.20;79.30;;;;;;5060507;28;46422;-68
2021/12/16 07:03:49;;;;;;;19.07;11.40;;;5.20;79.20;;;;;;5064698;28;46563;-69
2021/12/16 07:06:21;;;;;;;16.97;10.07;;;5.30;79.20;;;;;;5055502;28;46587;-66
2021/12/16 07:08:50;;;;;;;17.47;10.50;;;5.20;79.10;;;;;;5071022;28;46382;-69
2021/12/16 07:11:16;;;;;;;28.60;15.80;;;5.20;79.10;;;;;;5072842;28;46457;-70
2021/12/16 07:13:55;;;;;;;28.10;14.13;;;5.20;79.30;;;;;;5061028;28;48147;-68
2021/12/16 07:16:22;;;;;;;19.87;11.17;;;5.20;79.40;;;;;;5057277;28;46462;-69
2021/12/16 07:18:51;;;;;;;18.50;11.40;;;5.20;79.30;;;;;;5058525;28;46504;-67
2021/12/16 07:21:17;;;;;;;16.83;10.57;;;5.20;79.40;;;;;;5055121;28;46502;-68
2021/12/16 07:23:43;;;;;;;17.93;10.90;;;5.20;79.30;;;;;;5054343;28;47948;-67
2021/12/16 07:26:14;;;;;;;21.70;12.30;;;5.20;79.30;;;;;;5057953;28;46564;-66
2021/12/16 07:28:40;;;;;;;21.90;11.50;;;5.20;79.20;;;;;;5058416;28;46354;-68
2021/12/16 07:31:06;;;;;;;20.87;10.67;;;5.20;79.20;;;;;;5059244;28;46357;-69
2021/12/16 07:33:31;;;;;;;14.07;9.83;;;5.20;79.20;;;;;;5058842;28;47932;-67
2021/12/16 07:36:00;;;;;;;15.77;10.23;;;5.30;79.20;;;;;;5060886;28;46318;-67
2021/12/16 07:38:26;;;;;;;22.60;14.30;;;5.30;79.00;;;;;;5061297;28;46378;-69
2021/12/16 07:40:53;;;;;;;17.73;11.53;;;5.40;79.00;;;;;;5075981;28;46268;-69
2021/12/16 07:43:42;;;;;;;17.20;11.10;;;5.40;78.90;;;;;;5058886;28;48266;-67
2021/12/16 07:46:13;;;;;;;21.00;12.40;;;5.40;78.80;;;;;;5072721;28;46708;-69
2021/12/16 07:48:41;;;;;;;18.50;11.07;;;5.50;78.70;;;;;;5058345;28;46323;-68
2021/12/16 07:51:07;;;;;;;17.17;12.70;;;5.50;78.40;;;;;;5063683;28;46507;-71
2021/12/16 07:53:35;;;;;;;15.90;10.60;;;5.60;78.20;;;;;;5060373;28;48026;-68
2021/12/16 07:56:01;;;;;;;13.80;10.20;;;5.60;78.50;;;;;;5057003;28;46492;-68
2021/12/16 07:58:35;;;;;;;15.37;10.30;;;5.60;78.60;;;;;;5051471;28;46496;-69
2021/12/16 08:01:02;;;;;;;19.03;12.33;;;5.60;78.60;;;;;;5065870;28;46520;-68
2021/12/16 08:03:34;;;;;;;18.80;11.33;;;5.70;79.50;;;;;;5058667;28;48908;-68
2021/12/16 08:06:07;;;;;;;18.17;10.43;;;5.70;78.20;;;;;;5058056;28;46308;-69
2021/12/16 08:08:33;;;;;;;19.80;11.37;;;5.70;78.00;;;;;;5054178;28;46307;-69
2021/12/16 08:11:00;;;;;;;19.60;13.70;;;5.80;79.00;;;;;;5058530;28;46409;-68
2021/12/16 08:13:28;;;;;;;17.10;11.10;;;5.80;77.70;;;;;;5051714;28;47928;-69
2021/12/16 08:15:54;;;;;;;10.70;7.53;;;5.80;77.80;;;;;;5064450;28;46392;-69
2021/12/16 08:18:25;;;;;;;15.80;9.13;;;5.80;77.70;;;;;;5055600;28;46385;-69
2021/12/16 08:20:50;;;;;;;15.83;10.27;;;5.80;77.70;;;;;;5052927;28;46311;-68
2021/12/16 08:23:16;;;;;;;14.63;9.77;;;5.80;77.80;;;;;;5051758;28;48243;-69
2021/12/16 08:25:42;;;;;;;15.83;10.40;;;5.90;77.90;;;;;;5059356;28;45791;-69
2021/12/16 08:28:08;;;;;;;15.13;9.80;;;5.90;77.60;;;;;;5053904;28;45756;-69
2021/12/16 08:30:39;;;;;;;27.03;17.30;;;6.00;77.30;;;;;;5053319;28;46358;-68
2021/12/16 08:33:09;;;;;;;14.80;9.87;;;6.10;77.10;;;;;;5055028;28;48943;-68
2021/12/16 08:35:40;;;;;;;16.17;10.10;;;6.10;77.00;;;;;;5061796;28;46459;-68
2021/12/16 08:38:10;;;;;;;16.30;10.03;;;6.20;78.00;;;;;;5055525;28;46338;-68
2021/12/16 08:40:41;;;;;;;17.13;9.70;;;6.20;76.80;;;;;;5063551;28;46347;-68
2021/12/16 08:43:08;;;;;;;14.50;10.03;;;6.20;76.80;;;;;;5053656;28;48724;-68
2021/12/16 08:45:34;;;;;;;13.60;9.17;;;6.30;76.80;;;;;;5062979;28;46432;-69
2021/12/16 08:48:04;;;;;;;14.57;9.17;;;6.30;76.70;;;;;;5050662;28;46506;-68
2021/12/16 08:50:34;;;;;;;17.37;10.07;;;6.40;76.90;;;;;;5052471;28;45964;-68
2021/12/16 08:53:00;;;;;;;17.10;11.10;;;6.40;76.70;;;;;;5056385;28;47946;-68
2021/12/16 08:55:29;;;;;;;14.70;9.43;;;6.50;76.80;;;;;;5054502;28;46315;-68
2021/12/16 08:57:56;;;;;;;14.00;9.20;;;6.60;76.20;;;;;;5065499;28;46468;-68
2021/12/16 09:00:26;;;;;;;14.80;8.60;;;6.60;75.80;;;;;;5055596;28;46441;-68
2021/12/16 09:02:52;;;;;;;16.80;9.20;;;6.60;75.80;;;;;;5055260;28;47261;-68
2021/12/16 09:05:20;;;;;;;15.60;9.57;;;6.60;75.70;;;;;;5051700;28;46375;-68
2021/12/16 09:07:48;;;;;;;13.80;9.60;;;6.70;75.70;;;;;;5056243;28;46642;-69
2021/12/16 09:10:22;;;;;;;17.25;10.80;;;6.70;75.10;;;;;;5054663;28;46598;-67
2021/12/16 09:13:00;;;;;;;12.30;8.57;;;6.80;75.20;;;;;;5052136;28;47918;-68
2021/12/16 09:15:27;;;;;;;13.98;8.63;;;6.80;75.20;;;;;;5056245;28;46331;-67
2021/12/16 09:17:53;;;;;;;14.60;9.50;;;6.80;75.20;;;;;;5061328;28;46303;-68
2021/12/16 09:20:20;;;;;;;14.73;9.95;;;6.80;75.20;;;;;;5058726;28;46468;-68
2021/12/16 09:22:46;;;;;;;12.98;7.65;;;6.80;75.20;;;;;;5057866;28;48699;-69
2021/12/16 09:25:13;;;;;;;14.75;10.00;;;6.80;75.20;;;;;;5052295;28;46460;-68
2021/12/16 09:27:45;;;;;;;12.20;8.30;;;6.70;74.90;;;;;;5061838;28;46286;-68
2021/12/16 09:30:18;;;;;;;13.03;8.37;;;6.80;75.20;;;;;;5067353;27;46683;-68
2021/12/16 09:32:45;;;;;;;9.47;6.83;;;6.80;75.20;;;;;;5070521;28;48134;-68
2021/12/16 09:35:12;;;;;;;9.47;6.07;;;6.90;74.70;;;;;;5051898;28;46447;-70
2021/12/16 09:37:38;;;;;;;8.67;6.20;;;6.80;75.20;;;;;;5056709;28;46649;-69
2021/12/16 09:40:12;;;;;;;9.23;6.37;;;6.80;75.00;;;;;;5051700;28;46394;-69
2021/12/16 09:42:40;;;;;;;11.05;8.00;;;6.90;74.30;;;;;;5054581;28;47377;-68
2021/12/16 09:45:08;;;;;;;8.73;6.70;;;7.00;72.70;;;;;;5071790;28;45778;-68
2021/12/16 09:47:36;;;;;;;9.30;6.20;;;7.00;72.80;;;;;;5066042;28;46578;-68
2021/12/16 09:50:05;;;;;;;9.60;6.20;;;7.10;72.60;;;;;;5057219;28;46366;-69
2021/12/16 09:52:31;;;;;;;7.80;5.40;;;7.10;72.70;;;;;;5055370;28;47831;-68
2021/12/16 09:54:57;;;;;;;10.50;6.83;;;7.10;72.90;;;;;;5054708;28;46420;-68
2021/12/16 09:57:23;;;;;;;10.67;6.90;;;7.10;72.70;;;;;;5077398;28;46233;-68
2021/12/16 09:59:49;;;;;;;10.07;6.83;;;7.00;73.10;;;;;;5052522;28;46395;-68
2021/12/16 10:02:20;;;;;;;8.83;5.93;;;7.10;72.80;;;;;;5056577;28;48772;-68
2021/12/16 10:04:49;;;;;;;8.87;6.70;;;7.20;72.60;;;;;;5072986;28;46292;-67
2021/12/16 10:07:21;;;;;;;8.60;6.10;;;7.30;72.20;;;;;;5055856;28;46349;-69
2021/12/16 10:09:56;;;;;;;8.67;6.53;;;7.40;72.00;;;;;;5054819;28;46435;-67
2021/12/16 10:12:29;;;;;;;7.67;5.20;;;7.50;71.70;;;;;;5060319;28;46461;-68
2021/12/16 10:17:26;;;;;;;9.43;6.97;;;7.70;71.70;;;;;;5077982;28;46434;-68
2021/12/16 10:20:05;;;;;;;8.77;6.07;;;7.80;71.40;;;;;;5058468;28;46395;-67
2021/12/16 10:22:38;;;;;;;7.63;5.80;;;8.00;71.10;;;;;;5062056;28;46527;-67
2021/12/16 10:25:22;;;;;;;7.20;5.13;;;8.20;70.80;;;;;;5067015;28;46410;-68
2021/12/16 10:28:04;;;;;;;8.47;5.43;;;8.20;70.60;;;;;;5062769;28;46363;-68
2021/12/16 10:31:04;;;;;;;6.77;5.20;;;8.30;70.30;;;;;;5051573;28;45761;-67
2021/12/16 10:33:38;;;;;;;8.10;5.27;;;8.20;70.30;;;;;;5056851;28;47929;-68
2021/12/16 10:36:18;;;;;;;7.80;5.80;;;8.10;70.50;;;;;;5060006;28;46375;-68
2021/12/16 10:38:56;;;;;;;7.00;4.87;;;8.10;70.30;;;;;;5054495;28;46382;-68
2021/12/16 10:41:32;;;;;;;8.70;5.80;;;8.10;70.30;;;;;;5050879;28;46485;-68
2021/12/16 10:44:10;;;;;;;7.80;4.37;;;8.30;70.10;;;;;;5058464;28;48063;-67
2021/12/16 10:46:43;;;;;;;5.10;3.37;;;8.30;69.90;;;;;;5060442;28;46457;-68
2021/12/16 10:49:15;;;;;;;6.27;4.67;;;8.30;71.00;;;;;;5061250;28;46346;-69
2021/12/16 10:51:54;;;;;;;11.77;4.63;;;8.30;71.10;;;;;;5060570;28;46472;-69
2021/12/16 10:54:21;;;;;;;7.40;4.43;;;8.10;70.20;;;;;;5055194;28;47270;-68
2021/12/16 10:56:47;;;;;;;5.47;4.03;;;8.20;70.10;;;;;;5052533;28;46446;-68
2021/12/16 10:59:13;;;;;;;9.30;6.40;;;8.30;69.90;;;;;;5054045;28;46284;-68
2021/12/16 11:02:22;;;;;;;7.43;5.13;;;8.40;69.50;;;;;;5055036;28;46383;-67
2021/12/16 11:05:06;;;;;;;8.70;5.50;;;8.50;68.70;;;;;;4943636;28;48520;-67
2021/12/16 11:07:34;;;;;;;7.43;5.00;;;8.40;68.20;;;;;;4951995;28;46364;-67
2021/12/16 11:10:08;;;;;;;8.37;5.73;;;8.40;68.20;;;;;;5020277;28;46348;-67
2021/12/16 11:12:42;;;;;;;8.83;6.37;;;8.40;68.30;;;;;;5052146;28;46417;-66
2021/12/16 11:15:17;;;;;;;9.27;5.83;;;8.40;67.70;;;;;;5052685;28;48082;-68
2021/12/16 11:18:02;;;;;;;12.20;6.90;;;8.40;67.80;;;;;;5062756;28;46466;-66
2021/12/16 11:20:51;;;;;;;11.50;6.70;;;8.40;67.80;;;;;;5056066;28;46367;-67
2021/12/16 11:23:23;;;;;;;10.77;6.10;;;8.40;67.80;;;;;;5074050;28;46280;-67
2021/12/16 11:25:52;;;;;;;10.30;5.97;;;8.40;68.30;;;;;;5061949;28;47730;-69
2021/12/16 11:28:18;;;;;;;8.80;6.27;;;8.30;68.10;;;;;;5062896;28;46540;-67
2021/12/16 11:30:52;;;;;;;9.30;6.17;;;8.40;68.00;;;;;;5059019;28;46706;-67
2021/12/16 11:33:23;;;;;;;11.67;5.70;;;8.40;69.30;;;;;;5055327;28;46367;-68
2021/12/16 11:35:55;;;;;;;8.87;5.70;;;8.50;68.00;;;;;;5061549;28;47788;-68
2021/12/16 11:38:27;;;;;;;10.10;6.60;;;8.40;68.10;;;;;;5058976;28;46420;-67
2021/12/16 11:41:04;;;;;;;7.37;5.10;;;8.40;68.00;;;;;;5055420;28;46012;-67
2021/12/16 11:43:58;;;;;;;8.67;6.03;;;8.40;68.20;;;;;;5057752;28;46607;-68
2021/12/16 11:46:40;;;;;;;7.83;6.17;;;8.50;68.10;;;;;;5051825;28;46267;-67
2021/12/16 11:49:15;;;;;;;8.73;5.30;;;8.40;68.20;;;;;;5064534;28;46548;-68
2021/12/16 11:51:45;;;;;;;8.10;5.30;;;8.40;68.00;;;;;;5064636;28;46406;-67
2021/12/16 11:54:17;;;;;;;9.00;5.30;;;8.30;68.10;;;;;;5058138;28;46287;-67
2021/12/16 11:56:57;;;;;;;8.33;5.17;;;8.30;68.20;;;;;;5062428;28;48852;-67
2021/12/16 11:59:55;;;;;;;7.97;5.60;;;8.20;68.10;;;;;;5057241;28;46614;-67
2021/12/16 12:02:26;;;;;;;8.43;5.50;;;8.30;68.00;;;;;;5032188;28;46493;-67
2021/12/16 12:05:13;;;;;;;6.03;4.67;;;8.30;68.10;;;;;;5051602;27;46699;-68
2021/12/16 12:07:44;;;;;;;7.33;4.50;;;8.30;68.00;;;;;;5064692;28;47869;-67
2021/12/16 12:10:10;;;;;;;6.40;5.03;;;8.30;67.70;;;;;;5059228;28;45905;-67
2021/12/16 12:12:45;;;;;;;8.03;4.57;;;8.30;67.80;;;;;;5058737;28;46407;-67
2021/12/16 12:15:14;;;;;;;7.03;4.90;;;8.10;68.20;;;;;;5054751;28;46468;-67
2021/12/16 12:17:51;;;;;;;7.07;4.70;;;8.00;68.20;;;;;;5056197;28;47998;-67
2021/12/16 12:20:24;;;;;;;7.53;4.40;;;8.10;68.10;;;;;;5073780;28;45786;-67
2021/12/16 12:22:51;;;;;;;6.93;5.07;;;8.20;67.90;;;;;;5077280;28;46392;-67
2021/12/16 12:25:18;;;;;;;7.60;4.80;;;8.20;67.70;;;;;;5057469;28;46361;-67
2021/12/16 12:27:44;;;;;;;6.20;4.40;;;8.30;67.50;;;;;;5052474;28;48932;-67
2021/12/16 12:30:10;;;;;;;9.63;4.70;;;8.30;67.30;;;;;;5054197;28;45907;-68
2021/12/16 12:32:39;;;;;;;8.47;5.53;;;8.30;67.10;;;;;;5053619;28;46381;-68
2021/12/16 12:35:15;;;;;;;7.27;5.10;;;8.30;66.70;;;;;;5053115;28;46378;-67
2021/12/16 12:37:46;;;;;;;6.57;4.43;;;8.30;66.50;;;;;;5073197;28;49170;-67
2021/12/16 12:40:36;;;;;;;6.40;4.57;;;8.30;66.30;;;;;;5051048;28;46433;-67
2021/12/16 12:43:04;;;;;;;6.78;5.10;;;8.30;66.10;;;;;;5063880;28;46335;-67
2021/12/16 12:45:35;;;;;;;6.70;4.90;;;8.30;65.80;;;;;;5073027;28;46335;-67
2021/12/16 12:48:05;;;;;;;8.13;5.03;;;8.30;65.90;;;;;;5056776;28;47756;-68
2021/12/16 12:50:42;;;;;;;8.77;5.90;;;8.40;65.90;;;;;;5054755;28;45855;-68
2021/12/16 12:53:14;;;;;;;7.17;4.90;;;8.30;65.60;;;;;;5062313;28;46430;-66
2021/12/16 12:55:43;;;;;;;7.13;5.27;;;8.30;65.40;;;;;;5054417;28;46333;-68
2021/12/16 12:58:18;;;;;;;8.80;5.70;;;8.30;65.30;;;;;;5056100;28;48020;-66
2021/12/16 13:00:59;;;;;;;8.90;5.40;;;8.30;65.20;;;;;;5069780;28;46487;-67
2021/12/16 13:03:25;;;;;;;9.00;5.80;;;8.20;65.40;;;;;;5051171;28;46330;-66
2021/12/16 13:05:53;;;;;;;7.90;5.50;;;8.10;65.40;;;;;;5056343;28;46453;-67
2021/12/16 13:08:27;;;;;;;7.60;5.37;;;8.10;65.30;;;;;;5071833;28;46262;-67
2021/12/16 13:11:01;;;;;;;7.67;4.33;;;8.10;65.50;;;;;;5072169;28;46358;-67
2021/12/16 13:13:35;;;;;;;8.43;4.93;;;8.00;65.80;;;;;;5052499;28;45818;-67
2021/12/16 13:24:47;;;;;;;6.50;4.40;;;7.80;66.40;;;;;;5074870;28;46355;-67
2021/12/16 13:32:47;;;;;;;6.63;4.50;;;7.70;66.30;;;;;;5068552;28;46421;-68
2021/12/16 13:37:56;;;;;;;7.63;4.40;;;7.70;66.20;;;;;;5067624;28;46362;-67
2021/12/16 13:40:24;;;;;;;6.33;4.70;;;7.70;66.30;;;;;;5056555;28;47703;-67
2021/12/16 13:42:59;;;;;;;20.40;5.67;;;7.70;66.40;;;;;;5055726;28;46329;-67
2021/12/16 13:45:41;;;;;;;7.00;5.10;;;7.70;66.10;;;;;;5054450;28;46323;-67
2021/12/16 14:05:19;;;;;;;5.90;4.00;;;7.70;66.60;;;;;;5074151;27;46348;-67
2021/12/16 14:07:58;;;;;;;7.07;4.77;;;7.80;66.60;;;;;;5061077;28;46409;-68
2021/12/16 14:10:52;;;;;;;7.37;4.33;;;7.80;66.50;;;;;;5056738;28;46215;-66
2021/12/16 14:16:22;;;;;;;9.53;6.10;;;7.70;66.30;;;;;;5069508;28;46250;-66
2021/12/16 14:25:18;;;;;;;19.40;12.00;;;7.50;67.00;;;;;;5071826;28;46438;-67
2021/12/16 14:50:44;;;;;;;10.13;7.60;;;7.00;67.90;;;;;;5048626;28;46345;-67
2021/12/16 14:53:32;;;;;;;6.60;4.60;;;6.90;68.40;;;;;;5049007;28;46410;-66
2021/12/16 14:56:15;;;;;;;7.53;5.20;;;6.80;68.70;;;;;;5051881;28;46615;-68
2021/12/16 14:58:44;;;;;;;8.67;4.63;;;6.80;68.90;;;;;;5074362;28;46166;-68
2021/12/16 15:01:19;;;;;;;11.73;6.90;;;6.60;69.20;;;;;;5057007;28;46657;-66
2021/12/16 15:03:47;;;;;;;5.80;4.17;;;6.60;69.40;;;;;;5064209;28;46337;-67
2021/12/16 15:06:21;;;;;;;8.63;4.17;;;6.50;69.60;;;;;;5056099;28;46445;-67
2021/12/16 15:09:13;;;;;;;5.83;3.97;;;6.40;69.80;;;;;;5063320;28;47895;-67
2021/12/16 15:11:53;;;;;;;6.00;4.10;;;6.30;69.90;;;;;;5073026;28;46415;-67
2021/12/16 15:44:23;;;;;;;20.23;12.67;;;6.00;70.40;;;;;;5072137;28;46486;-66
2021/12/16 15:46:50;;;;;;;38.20;18.33;;;6.00;70.50;;;;;;5056215;28;46516;-67
2021/12/16 15:49:16;;;;;;;30.63;15.90;;;5.80;71.20;;;;;;5059773;28;46307;-67
2021/12/16 15:51:42;;;;;;;30.17;16.07;;;5.60;72.40;;;;;;5056301;28;48009;-67
2021/12/16 15:54:10;;;;;;;26.17;15.30;;;5.50;72.90;;;;;;5061877;28;46395;-68
2021/12/16 15:56:42;;;;;;;28.23;15.47;;;5.40;73.90;;;;;;5057760;28;45786;-68
2021/12/16 15:59:13;;;;;;;26.47;15.77;;;5.30;73.90;;;;;;5063189;28;46398;-68
2021/12/16 16:01:51;;;;;;;31.97;15.83;;;5.10;73.70;;;;;;5053653;28;47843;-67
2021/12/16 16:04:20;;;;;;;32.90;17.17;;;4.90;74.30;;;;;;5058338;28;46418;-67
2021/12/16 16:06:57;;;;;;;32.20;17.30;;;4.80;75.20;;;;;;5057769;28;46418;-67
2021/12/16 16:09:25;;;;;;;35.80;17.10;;;4.60;75.50;;;;;;5065356;28;45980;-67
2021/12/16 16:11:53;;;;;;;38.70;17.93;;;4.60;75.80;;;;;;5058016;28;48533;-68
2021/12/16 16:14:22;;;;;;;34.20;19.57;;;4.50;75.80;;;;;;5056126;28;46390;-68
2021/12/16 16:16:53;;;;;;;35.33;17.60;;;4.50;76.10;;;;;;5074500;27;46496;-66
2021/12/16 16:19:47;;;;;;;36.20;19.33;;;4.50;76.00;;;;;;5063969;28;45978;-68
2021/12/16 16:22:13;;;;;;;35.47;16.93;;;4.50;76.00;;;;;;5054712;27;46453;-68
2021/12/16 16:24:47;;;;;;;30.70;17.90;;;4.50;75.80;;;;;;5053332;28;46227;-68
2021/12/16 16:27:15;;;;;;;35.00;18.07;;;4.50;75.60;;;;;;5056756;27;46386;-68
2021/12/16 16:29:47;;;;;;;41.47;20.27;;;4.60;75.40;;;;;;5055276;28;46722;-68
2021/12/16 16:32:13;;;;;;;41.80;24.50;;;4.50;75.40;;;;;;5071809;27;48089;-68
2021/12/16 16:34:49;;;;;;;47.23;27.07;;;4.50;75.60;;;;;;5056752;28;46570;-65
2021/12/16 16:37:30;;;;;;;42.53;22.30;;;4.40;75.90;;;;;;5069868;27;46542;-66
2021/12/16 16:40:02;;;;;;;36.07;19.20;;;4.30;76.10;;;;;;5071747;27;45976;-68
2021/12/16 16:42:46;;;;;;;42.77;21.83;;;4.10;76.40;;;;;;5061852;28;48006;-68
2021/12/16 16:45:29;;;;;;;36.38;20.48;;;4.10;76.70;;;;;;5069727;27;46484;-67
2021/12/16 16:48:05;;;;;;;41.93;20.20;;;4.00;76.80;;;;;;5055978;28;46493;-66
2021/12/16 16:50:32;;;;;;;39.47;18.70;;;3.90;76.90;;;;;;5062344;28;46599;-66
2021/12/16 16:53:00;;;;;;;39.93;19.90;;;3.90;76.90;;;;;;5060780;28;47913;-67
2021/12/16 16:55:33;;;;;;;44.78;20.17;;;4.00;76.90;;;;;;5062023;28;46443;-67
2021/12/16 16:58:09;;;;;;;40.13;21.60;;;4.00;77.80;;;;;;5074902;28;46386;-68
2021/12/16 17:00:50;;;;;;;43.27;22.93;;;3.90;76.50;;;;;;5056440;28;45886;-67
2021/12/16 17:03:19;;;;;;;51.00;23.43;;;3.90;76.60;;;;;;5057468;28;48025;-67
2021/12/16 17:05:52;;;;;;;51.90;22.88;;;3.80;76.80;;;;;;5054371;28;46459;-66
2021/12/16 17:08:24;;;;;;;42.88;21.77;;;3.80;77.10;;;;;;5055663;28;46469;-69
2021/12/16 17:10:59;;;;;;;49.37;21.80;;;3.70;77.00;;;;;;5065013;28;46430;-68
2021/12/16 17:13:53;;;;;;;50.93;22.97;;;3.70;77.00;;;;;;5056497;28;47887;-68
2021/12/16 17:19:17;;;;;;;40.00;20.25;;;3.90;76.70;;;;;;5071854;28;46350;-68